KAL402 YSSY-RKSI
Flight info
| Callsign | KAL402 |
|---|---|
| Flight time | N/A |
| Altitude | 34000 |
| Route | RIC H530 LASUD Q238 DUPUG/N0489F350 Q141 ESKUT/N0489F360 Q141 OVRON B462 PY B586 PIKOK DCT 05N144E/N0484F380 10N141E 15N139E 20N137E DCT SABGU G339 LUKRA Y208 INVOK/N0469F360 Z91 PSN/N0462F340 Y782 KALOD/N0457F320 Y782 TGU/N0448F300 Y782 BITUX Z53 BASEM Y685 GUKDO GUKDO3C |
| Aircraft | B77W/H-SDE1E2E3FGHIJ2J3J4J5M1RWXY/LB1D1 |
Departure
| Time | 2026-05-04 01:33 |
|---|---|
| Airport | Sydney Kingsford Smith International Airport (YSSY) |
Arrival
| Time | N/A |
|---|---|
| Airport | Incheon International Airport (RKSI) |
| Time | Latitude | Longitude | Altitude | Speed | Heading |
|---|---|---|---|---|---|
| 2026-05-04 01:13 | -33.93562 | 151.16823 | 35 ft | 0 kts | 237° |
| 2026-05-04 01:20 | -33.93560 | 151.16827 | 35 ft | 2 kts | 238° |
| 2026-05-04 01:20 | -33.93550 | 151.16846 | 34 ft | 3 kts | 245° |
| 2026-05-04 01:21 | -33.93542 | 151.16868 | 32 ft | 3 kts | 247° |
| 2026-05-04 01:21 | -33.93535 | 151.16889 | 32 ft | 2 kts | 241° |
| 2026-05-04 01:21 | -33.93525 | 151.16907 | 32 ft | 3 kts | 223° |
| 2026-05-04 01:21 | -33.93512 | 151.16918 | 34 ft | 3 kts | 198° |
| 2026-05-04 01:22 | -33.93496 | 151.16922 | 33 ft | 3 kts | 175° |
| 2026-05-04 01:22 | -33.93477 | 151.16919 | 34 ft | 3 kts | 164° |
| 2026-05-04 01:22 | -33.93457 | 151.16912 | 33 ft | 3 kts | 163° |
| 2026-05-04 01:22 | -33.93442 | 151.16906 | 33 ft | 1 kts | 167° |
| 2026-05-04 01:23 | -33.93440 | 151.16906 | 35 ft | 0 kts | 168° |
| 2026-05-04 01:24 | -33.93446 | 151.16907 | 35 ft | 4 kts | 168° |
| 2026-05-04 01:25 | -33.93454 | 151.16909 | 35 ft | 0 kts | 168° |
| 2026-05-04 01:25 | -33.93471 | 151.16914 | 35 ft | 7 kts | 163° |
| 2026-05-04 01:25 | -33.93512 | 151.16964 | 35 ft | 8 kts | 106° |
| 2026-05-04 01:25 | -33.93503 | 151.17029 | 34 ft | 8 kts | 76° |
| 2026-05-04 01:26 | -33.93513 | 151.17091 | 34 ft | 8 kts | 128° |
| 2026-05-04 01:26 | -33.93566 | 151.17120 | 34 ft | 10 kts | 167° |
| 2026-05-04 01:26 | -33.93655 | 151.17143 | 34 ft | 16 kts | 167° |
| 2026-05-04 01:26 | -33.93792 | 151.17178 | 34 ft | 23 kts | 167° |
| 2026-05-04 01:27 | -33.93954 | 151.17220 | 34 ft | 24 kts | 168° |
| 2026-05-04 01:27 | -33.94120 | 151.17263 | 33 ft | 24 kts | 168° |
| 2026-05-04 01:27 | -33.94287 | 151.17306 | 35 ft | 24 kts | 168° |
| 2026-05-04 01:27 | -33.94453 | 151.17349 | 35 ft | 24 kts | 167° |
| 2026-05-04 01:28 | -33.94619 | 151.17393 | 35 ft | 24 kts | 168° |
| 2026-05-04 01:28 | -33.94785 | 151.17435 | 35 ft | 24 kts | 168° |
| 2026-05-04 01:28 | -33.94950 | 151.17478 | 34 ft | 24 kts | 168° |
| 2026-05-04 01:28 | -33.95116 | 151.17521 | 34 ft | 24 kts | 168° |
| 2026-05-04 01:29 | -33.95282 | 151.17564 | 34 ft | 24 kts | 167° |
| 2026-05-04 01:29 | -33.95448 | 151.17608 | 34 ft | 24 kts | 168° |
| 2026-05-04 01:29 | -33.95614 | 151.17651 | 35 ft | 24 kts | 167° |
| 2026-05-04 01:29 | -33.95780 | 151.17693 | 35 ft | 24 kts | 168° |
| 2026-05-04 01:30 | -33.95945 | 151.17737 | 35 ft | 24 kts | 168° |
| 2026-05-04 01:30 | -33.96111 | 151.17780 | 35 ft | 24 kts | 168° |
| 2026-05-04 01:30 | -33.96277 | 151.17822 | 35 ft | 24 kts | 168° |
| 2026-05-04 01:30 | -33.96408 | 151.17862 | 35 ft | 14 kts | 151° |
| 2026-05-04 01:31 | -33.96436 | 151.17925 | 35 ft | 0 kts | 83° |
| 2026-05-04 01:32 | -33.96436 | 151.17926 | 35 ft | 1 kts | 82° |
| 2026-05-04 01:32 | -33.96427 | 151.17988 | 34 ft | 10 kts | 78° |
| 2026-05-04 01:32 | -33.96384 | 151.18047 | 34 ft | 10 kts | 19° |
| 2026-05-04 01:33 | -33.96305 | 151.18034 | 34 ft | 20 kts | 348° |
| 2026-05-04 01:33 | -33.95913 | 151.17932 | 33 ft | 99 kts | 347° |
| 2026-05-04 01:33 | -33.94985 | 151.17691 | 34 ft | 171 kts | 347° |
| 2026-05-04 01:33 | -33.93760 | 151.17367 | 716 ft | 176 kts | 347° |
| 2026-05-04 01:34 | -33.92612 | 151.17059 | 1769 ft | 169 kts | 344° |
| 2026-05-04 01:34 | -33.91563 | 151.16332 | 2046 ft | 186 kts | 313° |
| 2026-05-04 01:34 | -33.90654 | 151.15109 | 2265 ft | 206 kts | 313° |
| 2026-05-04 01:34 | -33.89625 | 151.13800 | 2765 ft | 220 kts | 314° |
| 2026-05-04 01:35 | -33.88543 | 151.12443 | 3389 ft | 230 kts | 314° |
| 2026-05-04 01:35 | -33.87404 | 151.11031 | 3979 ft | 239 kts | 315° |
| 2026-05-04 01:35 | -33.86233 | 151.09592 | 4691 ft | 244 kts | 315° |
| 2026-05-04 01:35 | -33.85032 | 151.08122 | 5393 ft | 248 kts | 316° |
| 2026-05-04 01:36 | -33.83812 | 151.06633 | 6118 ft | 252 kts | 316° |
| 2026-05-04 01:36 | -33.82571 | 151.05124 | 6839 ft | 255 kts | 316° |
| 2026-05-04 01:36 | -33.81319 | 151.03606 | 7541 ft | 257 kts | 316° |
| 2026-05-04 01:36 | -33.80053 | 151.02074 | 8212 ft | 260 kts | 316° |
| 2026-05-04 01:37 | -33.78767 | 151.00520 | 8851 ft | 263 kts | 316° |
| 2026-05-04 01:37 | -33.77486 | 150.98974 | 9523 ft | 265 kts | 315° |
| 2026-05-04 01:37 | -33.76172 | 150.97387 | 10189 ft | 269 kts | 315° |
| 2026-05-04 01:37 | -33.74822 | 150.95761 | 10564 ft | 284 kts | 315° |
| 2026-05-04 01:38 | -33.73369 | 150.94012 | 10737 ft | 307 kts | 315° |
| 2026-05-04 01:38 | -33.71807 | 150.92135 | 10915 ft | 329 kts | 315° |
| 2026-05-04 01:38 | -33.70134 | 150.90124 | 11221 ft | 346 kts | 315° |
| 2026-05-04 01:38 | -33.68411 | 150.88052 | 11822 ft | 354 kts | 315° |
| 2026-05-04 01:39 | -33.66644 | 150.85930 | 12525 ft | 361 kts | 315° |